createdAt,value
2022-10-24T00:01:29.710Z,16.80
2022-10-24T00:04:00.346Z,14.45
2022-10-24T00:06:30.994Z,20.65
2022-10-24T00:09:01.482Z,16.15
2022-10-24T00:11:31.824Z,12.73
2022-10-24T00:14:02.304Z,11.93
2022-10-24T00:16:32.745Z,15.00
2022-10-24T00:19:03.178Z,14.28
2022-10-24T00:21:33.667Z,13.55
2022-10-24T00:24:03.964Z,12.73
2022-10-24T00:26:35.198Z,15.60
2022-10-24T00:29:06.291Z,16.40
2022-10-24T00:31:36.917Z,13.58
2022-10-24T00:34:07.338Z,17.52
2022-10-24T00:36:37.866Z,17.82
2022-10-24T00:39:08.265Z,19.20
2022-10-24T00:41:43.097Z,17.00
2022-10-24T00:44:24.902Z,18.02
2022-10-24T00:47:00.989Z,17.80
2022-10-24T00:49:34.475Z,16.23
2022-10-24T00:52:07.954Z,20.75
2022-10-24T00:54:40.523Z,15.58
2022-10-24T00:57:32.059Z,18.62
2022-10-24T01:00:14.675Z,18.12
2022-10-24T01:02:45.918Z,19.75
2022-10-24T01:05:17.727Z,23.62
2022-10-24T01:08:14.005Z,21.68
2022-10-24T01:11:05.668Z,19.17
2022-10-24T01:13:42.171Z,16.60
2022-10-24T01:16:42.613Z,17.57
2022-10-24T01:19:40.503Z,21.02
2022-10-24T01:22:20.018Z,18.62
2022-10-24T01:25:03.677Z,18.87
2022-10-24T01:27:55.721Z,21.65
2022-10-24T01:30:28.291Z,18.85
2022-10-24T01:33:04.561Z,18.27
2022-10-24T01:35:46.895Z,20.37
2022-10-24T01:38:23.337Z,20.80
2022-10-24T01:40:59.827Z,18.37
2022-10-24T01:43:42.471Z,22.77
2022-10-24T01:46:16.451Z,18.87
2022-10-24T01:48:50.037Z,17.82
2022-10-24T01:51:23.614Z,20.25
2022-10-24T01:53:55.485Z,17.60
2022-10-24T01:56:27.223Z,20.43
2022-10-24T01:59:08.940Z,18.37
2022-10-24T02:01:40.193Z,17.27
2022-10-24T02:04:13.741Z,18.98
2022-10-24T02:06:45.631Z,19.50
2022-10-24T02:09:19.480Z,18.52
2022-10-24T02:11:52.499Z,21.17
2022-10-24T02:14:41.122Z,20.43
2022-10-24T02:17:11.681Z,18.70
2022-10-24T02:19:43.548Z,18.02
2022-10-24T02:22:44.456Z,19.98
2022-10-24T02:25:17.938Z,18.37
2022-10-24T02:28:09.640Z,20.05
2022-10-24T02:30:46.224Z,17.10
2022-10-24T02:33:18.189Z,16.45
2022-10-24T02:35:52.541Z,18.55
2022-10-24T02:38:28.488Z,16.42
2022-10-24T02:41:01.784Z,15.08
2022-10-24T02:43:34.905Z,16.05
2022-10-24T02:46:06.472Z,15.78
2022-10-24T02:48:39.875Z,16.40
2022-10-24T02:51:11.345Z,16.07
2022-10-24T02:53:43.712Z,18.85
2022-10-24T02:56:14.301Z,17.90
2022-10-24T02:58:44.913Z,17.55
2022-10-24T03:01:15.491Z,19.17
2022-10-24T03:03:46.075Z,17.35
2022-10-24T03:06:16.684Z,19.52
2022-10-24T03:08:47.110Z,20.00
2022-10-24T03:11:17.982Z,17.67
2022-10-24T03:13:48.286Z,15.13
2022-10-24T03:16:18.668Z,16.77
2022-10-24T03:18:49.077Z,18.75
2022-10-24T03:21:19.635Z,17.00
2022-10-24T03:23:50.918Z,14.78
2022-10-24T03:26:21.404Z,19.42
2022-10-24T03:28:51.897Z,15.30
2022-10-24T03:31:22.318Z,13.93
2022-10-24T03:33:52.889Z,13.93
2022-10-24T03:36:23.278Z,17.32
2022-10-24T03:38:53.570Z,15.83
2022-10-24T03:41:24.478Z,13.75
2022-10-24T03:43:54.896Z,13.38
2022-10-24T03:46:25.426Z,17.45
2022-10-24T03:48:55.958Z,15.38
2022-10-24T03:51:26.494Z,11.75
2022-10-24T03:53:56.882Z,12.25
2022-10-24T03:56:27.467Z,10.93
2022-10-24T03:58:57.886Z,12.45
2022-10-24T04:01:28.391Z,12.90
2022-10-24T04:03:58.846Z,12.63
2022-10-24T04:06:31.338Z,12.28
2022-10-24T04:09:01.290Z,11.22
2022-10-24T04:11:31.630Z,15.30
2022-10-24T04:16:34.830Z,11.78
2022-10-24T04:19:05.429Z,11.80
2022-10-24T04:21:35.688Z,11.70
2022-10-24T04:24:06.618Z,11.68
2022-10-24T04:26:37.816Z,13.15
2022-10-24T04:29:08.199Z,11.28
2022-10-24T04:31:38.790Z,14.28
2022-10-24T04:34:09.107Z,12.80
2022-10-24T04:36:39.492Z,11.85
2022-10-24T04:39:09.906Z,12.95
2022-10-24T04:41:40.317Z,9.83
2022-10-24T04:44:10.692Z,12.23
2022-10-24T04:46:41.069Z,11.22
2022-10-24T04:49:11.460Z,12.33
2022-10-24T04:51:41.789Z,11.40
2022-10-24T04:54:12.162Z,10.53
2022-10-24T04:56:45.597Z,11.85
2022-10-24T04:59:15.931Z,9.80
2022-10-24T05:01:46.360Z,9.75
2022-10-24T05:04:16.794Z,11.55
2022-10-24T05:06:47.264Z,10.30
2022-10-24T05:09:17.651Z,11.20
2022-10-24T05:11:47.997Z,10.05
2022-10-24T05:14:18.375Z,10.68
2022-10-24T05:16:49.256Z,10.35
2022-10-24T05:19:20.216Z,10.60
2022-10-24T05:21:50.626Z,10.00
2022-10-24T05:24:20.989Z,11.28
2022-10-24T05:26:51.331Z,10.80
2022-10-24T05:29:21.873Z,9.10
2022-10-24T05:31:52.216Z,9.20
2022-10-24T05:34:22.566Z,11.60
2022-10-24T05:36:53.420Z,11.15
2022-10-24T05:39:23.627Z,9.68
2022-10-24T05:41:55.386Z,10.98
2022-10-24T05:44:25.932Z,11.33
2022-10-24T05:46:56.616Z,13.38
2022-10-24T05:49:26.963Z,12.28
2022-10-24T05:51:57.453Z,11.80
2022-10-24T05:54:33.444Z,10.88
2022-10-24T05:56:59.986Z,11.25
2022-10-24T05:59:30.425Z,12.95
2022-10-24T06:02:00.847Z,9.88
2022-10-24T06:04:31.246Z,11.40
2022-10-24T06:07:01.597Z,11.90
2022-10-24T06:09:31.982Z,12.40
2022-10-24T06:12:02.407Z,11.53
2022-10-24T06:14:32.724Z,11.90
2022-10-24T06:17:05.210Z,13.93
2022-10-24T06:19:36.704Z,12.60
2022-10-24T06:22:08.997Z,12.93
2022-10-24T06:24:39.642Z,15.45
2022-10-24T06:27:10.507Z,13.98
2022-10-24T06:29:40.809Z,10.15
2022-10-24T06:32:15.664Z,13.10
2022-10-24T06:34:45.964Z,14.03
2022-10-24T06:37:16.426Z,14.25
2022-10-24T06:39:46.845Z,12.63
2022-10-24T06:42:17.329Z,12.03
2022-10-24T06:44:47.770Z,16.30
2022-10-24T06:47:18.771Z,12.33
2022-10-24T06:49:49.163Z,16.17
2022-10-24T06:52:19.580Z,15.38
2022-10-24T06:54:50.126Z,14.30
2022-10-24T06:57:20.533Z,16.85
2022-10-24T06:59:50.878Z,15.18
2022-10-24T07:02:21.356Z,16.48
2022-10-24T07:04:51.832Z,13.60
2022-10-24T07:07:23.158Z,15.20
2022-10-24T07:09:55.513Z,15.15
2022-10-24T07:12:26.589Z,11.97
2022-10-24T07:14:57.124Z,13.32
2022-10-24T07:17:27.661Z,13.93
2022-10-24T07:19:57.982Z,12.98
2022-10-24T07:22:30.318Z,16.10
2022-10-24T07:25:00.464Z,13.95
2022-10-24T07:27:30.878Z,14.28
2022-10-24T07:30:04.726Z,15.45
2022-10-24T07:32:33.271Z,10.93
2022-10-24T07:35:03.583Z,13.10
2022-10-24T07:37:34.419Z,11.05
2022-10-24T07:40:05.097Z,16.30
2022-10-24T07:42:35.514Z,11.38
2022-10-24T07:45:07.117Z,9.88
2022-10-24T07:47:37.612Z,12.93
2022-10-24T07:50:08.943Z,12.33
2022-10-24T07:52:39.264Z,7.78
2022-10-24T07:55:10.143Z,9.28
2022-10-24T07:57:40.779Z,9.28
2022-10-24T08:00:12.110Z,10.15
2022-10-24T08:02:42.884Z,10.18
2022-10-24T08:05:13.498Z,8.33
2022-10-24T08:07:48.564Z,11.43
2022-10-24T08:10:15.983Z,9.73
2022-10-24T08:12:46.566Z,8.65
2022-10-24T08:15:17.240Z,8.18
2022-10-24T08:17:47.672Z,10.30
2022-10-24T08:20:18.068Z,9.88
2022-10-24T08:22:48.658Z,10.68
2022-10-24T08:25:19.078Z,10.90
2022-10-24T08:27:49.958Z,8.65
2022-10-24T08:30:20.726Z,8.23
2022-10-24T08:32:51.226Z,7.67
2022-10-24T08:35:22.078Z,7.40
2022-10-24T08:37:52.451Z,9.63
2022-10-24T08:40:22.773Z,11.12
2022-10-24T08:42:53.182Z,7.53
2022-10-24T08:45:30.040Z,9.63
2022-10-24T08:48:06.224Z,8.05
2022-10-24T08:50:38.140Z,6.62
2022-10-24T08:53:17.611Z,7.50
2022-10-24T08:55:52.927Z,7.28
2022-10-24T08:58:29.187Z,9.15
2022-10-24T09:01:02.503Z,8.73
2022-10-24T09:03:56.474Z,7.80
2022-10-24T09:06:22.906Z,8.95
2022-10-24T09:09:02.154Z,7.28
2022-10-24T09:11:50.391Z,6.15
2022-10-24T09:14:23.754Z,5.60
2022-10-24T09:16:57.078Z,8.70
2022-10-24T09:19:30.578Z,7.17
2022-10-24T09:22:02.009Z,8.58
2022-10-24T09:24:40.963Z,9.60
2022-10-24T09:29:51.489Z,9.70
2022-10-24T09:32:26.304Z,7.47
2022-10-24T09:34:58.245Z,5.50
2022-10-24T09:37:44.377Z,6.67
2022-10-24T09:40:24.536Z,6.87
2022-10-24T09:43:22.114Z,5.60
2022-10-24T09:45:55.045Z,7.25
2022-10-24T09:48:37.264Z,9.75
2022-10-24T09:51:09.304Z,5.87
2022-10-24T09:53:42.634Z,9.90
2022-10-24T09:56:15.369Z,8.50
2022-10-24T09:58:45.909Z,4.72
2022-10-24T10:01:19.419Z,9.60
2022-10-24T10:04:08.876Z,8.73
2022-10-24T10:06:38.016Z,10.30
2022-10-24T10:09:11.774Z,10.90
2022-10-24T10:11:49.363Z,5.50
2022-10-24T10:14:24.310Z,8.73
2022-10-24T10:17:06.679Z,6.95
2022-10-24T10:19:38.515Z,6.40
2022-10-24T10:22:27.045Z,6.85
2022-10-24T10:24:58.675Z,8.28
2022-10-24T10:27:40.895Z,9.33
2022-10-24T10:30:16.988Z,6.10
2022-10-24T10:32:53.511Z,8.33
2022-10-24T10:35:27.022Z,8.18
2022-10-24T10:38:06.243Z,5.80
2022-10-24T10:40:42.661Z,9.05
2022-10-24T10:43:40.075Z,7.97
2022-10-24T10:46:34.707Z,8.83
2022-10-24T10:49:10.700Z,10.15
2022-10-24T10:51:47.296Z,7.47
2022-10-24T10:54:41.936Z,6.72
2022-10-24T10:57:26.527Z,7.08
2022-10-24T10:59:59.101Z,7.30
2022-10-24T11:02:50.804Z,6.67
2022-10-24T11:05:24.380Z,11.90
2022-10-24T11:08:09.639Z,6.10
2022-10-24T11:10:45.792Z,9.58
2022-10-24T11:13:22.053Z,7.00
2022-10-24T11:15:55.506Z,10.30
2022-10-24T11:18:31.639Z,7.95
2022-10-24T11:21:07.032Z,9.43
2022-10-24T11:23:46.318Z,7.62
2022-10-24T11:26:34.965Z,6.17
2022-10-24T11:29:14.209Z,6.35
2022-10-24T11:31:50.493Z,8.15
2022-10-24T11:37:16.494Z,6.37
2022-10-24T11:40:08.236Z,5.60
2022-10-24T11:42:50.237Z,8.48
2022-10-24T11:45:23.739Z,7.60
2022-10-24T11:47:57.746Z,10.68
2022-10-24T11:50:40.290Z,5.53
2022-10-24T11:53:16.408Z,6.47
2022-10-24T11:55:49.884Z,7.10
2022-10-24T11:58:23.077Z,5.72
2022-10-24T12:01:02.419Z,7.78
2022-10-24T12:04:04.822Z,5.00
2022-10-24T12:06:53.533Z,6.70
2022-10-24T12:09:57.293Z,4.80
2022-10-24T12:12:50.264Z,6.22
2022-10-24T12:15:43.643Z,6.53
2022-10-24T12:18:32.265Z,6.15
2022-10-24T12:21:14.851Z,5.85
2022-10-24T12:23:48.382Z,4.58
2022-10-24T12:26:22.095Z,7.85
2022-10-24T12:29:04.129Z,17.07
2022-10-24T12:31:37.744Z,3.85
2022-10-24T12:34:20.585Z,6.95
2022-10-24T12:37:11.810Z,6.87
2022-10-24T12:39:47.376Z,6.95
2022-10-24T12:42:26.445Z,8.38
2022-10-24T12:45:08.964Z,9.03
2022-10-24T12:47:45.575Z,14.23
2022-10-24T12:50:25.988Z,5.87
2022-10-24T12:53:20.782Z,8.20
2022-10-24T12:55:54.797Z,6.35
2022-10-24T12:58:36.618Z,4.17
2022-10-24T13:01:13.471Z,6.53
2022-10-24T13:03:50.116Z,7.25
2022-10-24T13:06:29.611Z,5.62
2022-10-24T13:09:14.647Z,7.83
2022-10-24T13:12:12.210Z,5.25
2022-10-24T13:15:03.950Z,5.28
2022-10-24T13:17:46.499Z,5.90
2022-10-24T13:20:20.244Z,6.37
2022-10-24T13:22:51.659Z,6.28
2022-10-24T13:25:34.016Z,4.37
2022-10-24T13:28:25.451Z,5.53
2022-10-24T13:31:04.573Z,4.92
2022-10-24T13:33:37.966Z,5.12
2022-10-24T13:36:18.679Z,4.45
2022-10-24T13:38:57.935Z,8.03
2022-10-24T13:41:37.733Z,4.65
2022-10-24T13:44:29.151Z,8.20
2022-10-24T13:47:14.373Z,6.35
2022-10-24T13:50:07.372Z,6.45
2022-10-24T13:52:49.247Z,9.53
2022-10-24T13:55:33.468Z,8.90
2022-10-24T13:58:21.723Z,5.00
2022-10-24T14:01:07.921Z,6.20
2022-10-24T14:03:42.442Z,6.33
2022-10-24T14:06:12.376Z,6.50
2022-10-24T14:08:57.467Z,7.87
2022-10-24T14:11:26.263Z,12.63
2022-10-24T14:14:03.942Z,5.53
2022-10-24T14:16:34.514Z,4.78
2022-10-24T14:19:16.019Z,8.73
2022-10-24T14:21:46.453Z,5.60
2022-10-24T14:24:19.542Z,4.45
2022-10-24T14:26:54.019Z,5.72
2022-10-24T14:29:27.760Z,5.90
2022-10-24T14:32:03.877Z,7.83
2022-10-24T14:34:36.751Z,9.43
2022-10-24T14:37:10.188Z,5.65
2022-10-24T14:39:41.669Z,7.60
2022-10-24T14:42:18.358Z,4.97
2022-10-24T14:44:52.863Z,5.60
2022-10-24T14:47:35.360Z,5.42
2022-10-24T14:50:08.691Z,5.25
2022-10-24T14:52:40.806Z,6.75
2022-10-24T14:55:21.864Z,8.45
2022-10-24T14:57:54.608Z,5.78
2022-10-24T15:00:27.245Z,6.87
2022-10-24T15:03:01.211Z,8.23
2022-10-24T15:05:35.114Z,8.93
2022-10-24T15:08:21.980Z,7.17
2022-10-24T15:10:46.834Z,5.80
2022-10-24T15:13:23.477Z,6.67
2022-10-24T15:15:59.710Z,5.87
2022-10-24T15:18:43.866Z,12.65
2022-10-24T15:21:20.302Z,7.53
2022-10-24T15:23:56.845Z,5.97
2022-10-24T15:26:43.382Z,10.05
2022-10-24T15:29:16.849Z,7.72
2022-10-24T15:31:49.255Z,6.78
2022-10-24T15:34:24.791Z,6.15
2022-10-24T15:36:56.882Z,8.35
2022-10-24T15:39:27.861Z,7.10
2022-10-24T15:41:58.810Z,4.83
2022-10-24T15:44:31.506Z,7.65
2022-10-24T15:47:02.250Z,6.33
2022-10-24T15:49:32.697Z,6.00
2022-10-24T15:52:08.106Z,8.93
2022-10-24T15:54:38.482Z,4.97
2022-10-24T15:57:11.856Z,7.55
2022-10-24T15:59:42.173Z,7.25
2022-10-24T16:02:24.257Z,8.70
2022-10-24T16:04:54.627Z,6.35
2022-10-24T16:07:24.952Z,7.92
2022-10-24T16:09:55.644Z,6.92
2022-10-24T16:12:26.038Z,8.23
2022-10-24T16:14:56.420Z,7.20
2022-10-24T16:17:26.919Z,7.37
2022-10-24T16:19:57.316Z,5.15
2022-10-24T16:22:27.746Z,6.78
2022-10-24T16:24:58.212Z,7.72
2022-10-24T16:27:28.533Z,5.58
2022-10-24T16:29:58.896Z,8.25
2022-10-24T16:32:29.431Z,8.73
2022-10-24T16:34:59.844Z,7.10
2022-10-24T16:37:30.295Z,5.55
2022-10-24T16:40:00.882Z,7.47
2022-10-24T16:42:31.249Z,9.63
2022-10-24T16:45:02.498Z,7.40
2022-10-24T16:47:33.172Z,6.50
2022-10-24T16:50:04.437Z,8.75
2022-10-24T16:52:36.317Z,6.20
2022-10-24T16:55:07.163Z,10.70
2022-10-24T16:57:37.653Z,6.97
2022-10-24T17:00:09.400Z,7.78
2022-10-24T17:02:39.907Z,6.15
2022-10-24T17:05:11.742Z,6.60
2022-10-24T17:07:43.238Z,6.50
2022-10-24T17:10:14.440Z,6.65
2022-10-24T17:12:49.458Z,8.03
2022-10-24T17:15:22.399Z,5.03
2022-10-24T17:17:53.230Z,6.05
2022-10-24T17:20:23.625Z,8.25
2022-10-24T17:22:54.139Z,7.65
2022-10-24T17:25:27.133Z,12.93
2022-10-24T17:27:58.877Z,10.88
2022-10-24T17:30:32.985Z,10.98
2022-10-24T17:33:03.535Z,5.95
2022-10-24T17:35:35.765Z,10.43
2022-10-24T17:38:09.321Z,7.50
2022-10-24T17:40:45.616Z,16.40
2022-10-24T17:43:22.176Z,6.78
2022-10-24T17:45:54.422Z,5.83
2022-10-24T17:48:25.486Z,4.62
2022-10-24T17:50:58.580Z,6.08
2022-10-24T17:53:28.972Z,8.45
2022-10-24T17:55:59.405Z,5.40
2022-10-24T17:58:29.820Z,8.30
2022-10-24T18:01:00.968Z,6.20
2022-10-24T18:03:31.422Z,5.53
2022-10-24T18:06:03.546Z,5.33
2022-10-24T18:08:34.103Z,6.55
2022-10-24T18:11:08.521Z,15.25
2022-10-24T18:13:39.981Z,15.53
2022-10-24T18:16:11.915Z,7.42
2022-10-24T18:18:43.817Z,6.62
2022-10-24T18:21:24.730Z,15.98
2022-10-24T18:23:56.294Z,7.30
2022-10-24T18:26:28.083Z,9.85
2022-10-24T18:28:58.460Z,16.77
2022-10-24T18:31:30.837Z,9.75
2022-10-24T18:34:06.361Z,13.78
2022-10-24T18:36:34.228Z,4.75
2022-10-24T18:39:05.852Z,5.17
2022-10-24T18:41:51.028Z,8.20
2022-10-24T18:44:34.488Z,6.42
2022-10-24T18:47:07.973Z,6.10
2022-10-24T18:49:44.043Z,5.95
2022-10-24T18:52:32.389Z,6.00
2022-10-24T18:55:23.778Z,4.65
2022-10-24T18:57:54.439Z,8.88
2022-10-24T19:00:29.309Z,6.05
2022-10-24T19:03:22.663Z,5.92
2022-10-24T19:05:59.158Z,5.90
2022-10-24T19:08:29.695Z,4.78
2022-10-24T19:11:00.287Z,4.90
2022-10-24T19:13:30.825Z,5.72
2022-10-24T19:16:05.171Z,4.75
2022-10-24T19:18:37.677Z,6.08
2022-10-24T19:21:08.102Z,4.92
2022-10-24T19:23:38.590Z,6.87
2022-10-24T19:26:10.686Z,8.15
2022-10-24T19:28:41.309Z,5.10
2022-10-24T19:31:13.405Z,6.20
2022-10-24T19:33:44.579Z,6.85
2022-10-24T19:36:19.146Z,5.80
2022-10-24T19:38:48.232Z,5.58
2022-10-24T19:41:18.609Z,5.03
2022-10-24T19:43:49.010Z,5.12
2022-10-24T19:46:20.462Z,6.47
2022-10-24T19:48:52.976Z,6.08
2022-10-24T19:51:25.111Z,9.90
2022-10-24T19:53:57.053Z,17.60
2022-10-24T19:56:29.191Z,4.60
2022-10-24T19:58:59.933Z,7.65
2022-10-24T20:01:32.435Z,10.72
2022-10-24T20:04:02.988Z,6.25
2022-10-24T20:06:33.667Z,4.53
2022-10-24T20:09:04.127Z,9.75
2022-10-24T20:11:34.698Z,5.53
2022-10-24T20:14:05.080Z,7.83
2022-10-24T20:16:35.546Z,7.55
2022-10-24T20:19:06.776Z,4.70
2022-10-24T20:21:37.616Z,5.53
2022-10-24T20:24:08.756Z,8.13
2022-10-24T20:26:39.143Z,9.68
2022-10-24T20:29:09.531Z,4.95
2022-10-24T20:31:43.275Z,6.00
2022-10-24T20:34:14.943Z,4.72
2022-10-24T20:36:47.959Z,5.83
2022-10-24T20:39:20.040Z,6.20
2022-10-24T20:41:53.967Z,6.22
2022-10-24T20:44:22.904Z,5.53
2022-10-24T20:46:54.926Z,5.37
2022-10-24T20:49:25.667Z,4.50
2022-10-24T20:51:56.069Z,5.85
2022-10-24T20:54:26.536Z,6.80
2022-10-24T20:56:57.170Z,4.08
2022-10-24T20:59:27.684Z,4.67
2022-10-24T21:01:58.190Z,5.20
2022-10-24T21:04:28.769Z,5.15
2022-10-24T21:06:59.073Z,5.17
2022-10-24T21:09:29.460Z,5.75
2022-10-24T21:11:59.864Z,6.42
2022-10-24T21:14:30.250Z,8.23
2022-10-24T21:17:00.563Z,4.62
2022-10-24T21:19:31.020Z,4.05
2022-10-24T21:22:01.418Z,6.10
2022-10-24T21:24:31.761Z,7.03
2022-10-24T21:27:02.628Z,4.00
2022-10-24T21:29:34.135Z,9.70
2022-10-24T21:32:04.764Z,7.08
2022-10-24T21:34:36.017Z,5.67
2022-10-24T21:37:06.910Z,4.95
2022-10-24T21:39:37.238Z,9.03
2022-10-24T21:42:07.637Z,5.85
2022-10-24T21:44:37.945Z,5.95
2022-10-24T21:47:08.284Z,6.10
2022-10-24T21:49:38.670Z,7.20
2022-10-24T21:52:09.227Z,6.03
2022-10-24T21:54:39.552Z,5.10
2022-10-24T21:57:10.009Z,7.20
2022-10-24T21:59:41.531Z,7.35
2022-10-24T22:02:12.027Z,5.80
2022-10-24T22:04:42.496Z,5.50
2022-10-24T22:07:12.986Z,4.10
2022-10-24T22:09:43.526Z,6.28
2022-10-24T22:12:13.971Z,5.92
2022-10-24T22:14:44.373Z,7.80
2022-10-24T22:17:14.800Z,4.80
2022-10-24T22:19:45.238Z,8.05
2022-10-24T22:22:16.446Z,8.80
2022-10-24T22:24:46.929Z,4.33
2022-10-24T22:27:17.319Z,7.78
2022-10-24T22:29:47.706Z,15.20
2022-10-24T22:32:18.379Z,5.95
2022-10-24T22:34:49.043Z,7.58
2022-10-24T22:37:27.720Z,6.55
2022-10-24T22:39:58.530Z,8.55
2022-10-24T22:42:28.990Z,8.88
2022-10-24T22:44:59.908Z,6.67
2022-10-24T22:48:03.747Z,6.58
2022-10-24T22:50:54.683Z,7.25
2022-10-24T22:53:28.196Z,8.35
2022-10-24T22:56:07.333Z,9.23
2022-10-24T22:58:38.175Z,4.45
2022-10-24T23:01:32.726Z,5.60
2022-10-24T23:04:26.725Z,7.92
2022-10-24T23:07:22.500Z,6.10
2022-10-24T23:09:52.357Z,5.85
2022-10-24T23:12:23.699Z,6.47
2022-10-24T23:14:54.454Z,7.67
2022-10-24T23:17:27.601Z,6.03
2022-10-24T23:19:58.460Z,5.20
2022-10-24T23:22:31.305Z,6.10
2022-10-24T23:25:02.727Z,7.78
2022-10-24T23:27:41.127Z,5.97
2022-10-24T23:30:17.172Z,5.90
2022-10-24T23:32:49.208Z,4.90
2022-10-24T23:35:21.637Z,7.12
2022-10-24T23:37:53.674Z,5.90
2022-10-24T23:40:35.259Z,7.87
2022-10-24T23:43:05.994Z,5.65
2022-10-24T23:45:39.464Z,7.08
2022-10-24T23:48:43.129Z,6.55
2022-10-24T23:51:19.299Z,7.42
2022-10-24T23:53:52.945Z,6.55
2022-10-24T23:56:27.515Z,7.87
2022-10-24T23:58:57.949Z,5.12
